createdAt,value
2022-12-16T00:01:18.705Z,19.25
2022-12-16T00:03:57.273Z,16.38
2022-12-16T00:06:29.655Z,17.25
2022-12-16T00:08:56.904Z,16.20
2022-12-16T00:11:24.213Z,17.63
2022-12-16T00:13:51.392Z,17.00
2022-12-16T00:16:20.865Z,16.27
2022-12-16T00:18:48.261Z,17.50
2022-12-16T00:21:15.649Z,15.40
2022-12-16T00:23:42.657Z,16.83
2022-12-16T00:26:10.855Z,17.27
2022-12-16T00:28:39.114Z,17.60
2022-12-16T00:31:07.162Z,16.17
2022-12-16T00:33:34.748Z,16.48
2022-12-16T00:36:01.970Z,18.08
2022-12-16T00:38:29.437Z,18.15
2022-12-16T00:40:56.497Z,18.70
2022-12-16T00:43:23.416Z,18.23
2022-12-16T00:45:51.918Z,16.70
2022-12-16T00:48:19.447Z,18.67
2022-12-16T00:50:50.386Z,17.65
2022-12-16T00:53:20.743Z,19.15
2022-12-16T00:55:47.817Z,16.27
2022-12-16T00:58:15.098Z,16.42
2022-12-16T01:00:42.125Z,18.17
2022-12-16T01:03:09.669Z,18.58
2022-12-16T01:05:38.974Z,19.67
2022-12-16T01:08:06.283Z,20.05
2022-12-16T01:10:33.339Z,19.35
2022-12-16T01:13:00.361Z,18.75
2022-12-16T01:15:27.482Z,21.13
2022-12-16T01:17:54.498Z,19.55
2022-12-16T01:20:22.399Z,18.63
2022-12-16T01:22:49.510Z,17.25
2022-12-16T01:25:17.738Z,18.27
2022-12-16T01:27:44.774Z,20.40
2022-12-16T01:30:12.244Z,19.63
2022-12-16T01:32:39.206Z,19.30
2022-12-16T01:35:18.027Z,18.30
2022-12-16T01:37:50.472Z,18.17
2022-12-16T01:40:20.816Z,20.35
2022-12-16T01:42:47.902Z,19.35
2022-12-16T01:45:35.909Z,19.05
2022-12-16T01:48:50.936Z,17.13
2022-12-16T01:51:26.470Z,20.60
2022-12-16T01:56:53.722Z,19.80
2022-12-16T01:59:24.572Z,21.38
2022-12-16T02:01:52.500Z,17.70
2022-12-16T02:04:19.649Z,19.80
2022-12-16T02:06:47.152Z,19.65
2022-12-16T02:09:17.768Z,21.90
2022-12-16T02:15:13.992Z,21.83
2022-12-16T02:18:00.864Z,19.05
2022-12-16T02:21:05.558Z,24.13
2022-12-16T02:23:53.717Z,21.17
2022-12-16T02:26:49.116Z,23.88
2022-12-16T02:29:44.068Z,26.42
2022-12-16T02:32:35.418Z,22.60
2022-12-16T02:35:23.103Z,22.77
2022-12-16T02:38:08.337Z,26.67
2022-12-16T02:41:06.913Z,23.73
2022-12-16T02:46:43.100Z,22.15
2022-12-16T02:49:30.523Z,24.60
2022-12-16T02:51:59.756Z,23.13
2022-12-16T02:54:28.249Z,27.63
2022-12-16T02:57:04.099Z,25.90
2022-12-16T03:02:33.836Z,25.42
2022-12-16T03:05:08.153Z,27.20
2022-12-16T03:07:38.507Z,24.50
2022-12-16T03:10:08.599Z,27.83
2022-12-16T03:12:38.264Z,25.65
2022-12-16T03:15:07.770Z,25.00
2022-12-16T03:20:30.076Z,28.67
2022-12-16T03:23:03.171Z,26.65
2022-12-16T03:25:32.617Z,28.13
2022-12-16T03:28:16.179Z,27.25
2022-12-16T03:30:48.911Z,33.53
2022-12-16T03:33:28.649Z,29.98
2022-12-16T03:36:22.352Z,28.75
2022-12-16T03:38:51.232Z,32.90
2022-12-16T03:41:20.745Z,32.38
2022-12-16T03:43:49.455Z,32.30
2022-12-16T03:46:17.430Z,28.35
2022-12-16T03:48:49.834Z,27.30
2022-12-16T03:54:02.388Z,26.53
2022-12-16T03:56:29.381Z,29.05
2022-12-16T03:58:56.409Z,28.88
2022-12-16T04:01:23.627Z,29.17
2022-12-16T04:03:50.731Z,31.73
2022-12-16T04:06:18.711Z,29.25
2022-12-16T04:11:49.919Z,26.10
2022-12-16T04:14:35.255Z,30.65
2022-12-16T04:17:21.228Z,28.93
2022-12-16T04:20:07.293Z,30.20
2022-12-16T04:23:02.331Z,28.90
2022-12-16T04:28:18.488Z,27.45
2022-12-16T04:30:45.481Z,31.98
2022-12-16T04:33:33.937Z,27.35
2022-12-16T04:36:19.822Z,30.77
2022-12-16T04:39:05.041Z,26.55
2022-12-16T04:44:53.972Z,31.48
2022-12-16T04:47:57.968Z,27.45
2022-12-16T04:50:43.716Z,29.85
2022-12-16T04:53:29.335Z,29.05
2022-12-16T04:56:15.173Z,29.60
2022-12-16T05:02:14.695Z,30.75
2022-12-16T05:05:00.607Z,30.58
2022-12-16T05:07:45.953Z,29.05
2022-12-16T05:10:31.348Z,25.53
2022-12-16T05:13:16.975Z,27.50
2022-12-16T05:16:02.380Z,27.65
2022-12-16T05:18:48.267Z,33.57
2022-12-16T05:21:33.609Z,26.98
2022-12-16T05:24:19.148Z,33.40
2022-12-16T05:27:04.800Z,29.15
2022-12-16T05:29:50.502Z,30.30
2022-12-16T05:32:42.500Z,30.70
2022-12-16T05:35:27.988Z,32.40
2022-12-16T05:38:13.543Z,31.77
2022-12-16T05:40:59.189Z,32.63
2022-12-16T05:43:44.946Z,30.65
2022-12-16T05:46:30.416Z,29.60
2022-12-16T05:49:16.241Z,30.65
2022-12-16T05:52:02.136Z,32.88
2022-12-16T05:54:48.040Z,35.88
2022-12-16T05:57:33.695Z,33.17
2022-12-16T06:00:19.040Z,27.30
2022-12-16T06:03:05.053Z,31.30
2022-12-16T06:05:50.723Z,32.17
2022-12-16T06:08:36.303Z,32.28
2022-12-16T06:11:21.731Z,31.63
2022-12-16T06:14:07.331Z,31.80
2022-12-16T06:16:53.199Z,37.50
2022-12-16T06:19:38.879Z,39.85
2022-12-16T06:22:24.293Z,33.22
2022-12-16T06:25:09.764Z,34.47
2022-12-16T06:27:55.164Z,31.30
2022-12-16T06:30:40.708Z,28.37
2022-12-16T06:33:26.296Z,33.50
2022-12-16T06:36:11.859Z,32.33
2022-12-16T06:38:57.262Z,32.58
2022-12-16T06:41:47.156Z,32.40
2022-12-16T06:44:32.821Z,38.17
2022-12-16T06:47:18.464Z,32.60
2022-12-16T06:50:04.249Z,27.58
2022-12-16T06:52:50.351Z,35.15
2022-12-16T06:55:35.984Z,35.17
2022-12-16T06:58:21.394Z,38.08
2022-12-16T07:01:07.361Z,33.10
2022-12-16T07:03:52.811Z,34.72
2022-12-16T07:06:38.524Z,34.73
2022-12-16T07:09:24.283Z,33.75
2022-12-16T07:12:09.803Z,34.97
2022-12-16T07:14:55.525Z,32.05
2022-12-16T07:17:41.463Z,33.10
2022-12-16T07:20:27.715Z,34.30
2022-12-16T07:23:19.303Z,33.63
2022-12-16T07:26:05.616Z,36.35
2022-12-16T07:28:50.917Z,37.72
2022-12-16T07:31:36.852Z,35.75
2022-12-16T07:34:22.552Z,34.10
2022-12-16T07:37:07.912Z,33.58
2022-12-16T07:39:55.348Z,39.97
2022-12-16T07:42:42.260Z,34.70
2022-12-16T07:45:28.415Z,36.63
2022-12-16T07:48:14.357Z,37.53
2022-12-16T07:51:00.334Z,38.97
2022-12-16T07:56:31.118Z,33.15
2022-12-16T07:59:16.640Z,34.22
2022-12-16T08:02:02.227Z,38.15
2022-12-16T08:04:47.655Z,35.25
2022-12-16T08:07:33.268Z,35.30
2022-12-16T08:10:18.662Z,33.90
2022-12-16T08:13:11.717Z,31.30
2022-12-16T08:15:57.303Z,32.30
2022-12-16T08:18:42.839Z,30.88
2022-12-16T08:21:28.201Z,31.45
2022-12-16T08:24:13.716Z,31.20
2022-12-16T08:26:59.515Z,32.45
2022-12-16T08:29:45.703Z,32.03
2022-12-16T08:32:32.804Z,29.67
2022-12-16T08:35:18.638Z,33.00
2022-12-16T08:38:12.057Z,38.25
2022-12-16T08:41:02.749Z,39.00
2022-12-16T08:43:54.945Z,40.42
2022-12-16T08:46:40.771Z,39.03
2022-12-16T08:49:26.555Z,37.90
2022-12-16T08:52:12.167Z,36.53
2022-12-16T08:54:57.742Z,41.20
2022-12-16T08:57:44.510Z,40.78
2022-12-16T09:00:48.756Z,39.03
2022-12-16T09:03:34.754Z,37.63
2022-12-16T09:06:20.725Z,42.33
2022-12-16T09:09:06.131Z,45.80
2022-12-16T09:11:51.721Z,37.40
2022-12-16T09:14:44.782Z,42.20
2022-12-16T09:17:30.620Z,40.75
2022-12-16T09:20:16.139Z,40.35
2022-12-16T09:23:01.487Z,42.17
2022-12-16T09:25:46.945Z,40.50
2022-12-16T09:28:32.428Z,40.13
2022-12-16T09:31:17.917Z,42.75
2022-12-16T09:34:03.528Z,44.65
2022-12-16T09:36:49.166Z,41.60
2022-12-16T09:39:34.675Z,41.97
2022-12-16T09:42:38.992Z,39.20
2022-12-16T09:45:27.736Z,46.42
2022-12-16T09:48:31.204Z,36.58
2022-12-16T09:51:23.247Z,43.63
2022-12-16T09:54:11.811Z,42.97
2022-12-16T09:56:57.552Z,40.85
2022-12-16T10:00:08.109Z,47.72
2022-12-16T10:02:53.819Z,46.60
2022-12-16T10:05:54.456Z,43.47
2022-12-16T10:08:50.282Z,41.38
2022-12-16T10:12:02.372Z,42.13
2022-12-16T10:14:58.457Z,45.08
2022-12-16T10:17:44.644Z,46.80
2022-12-16T10:20:48.587Z,41.78
2022-12-16T10:23:48.163Z,49.92
2022-12-16T10:26:41.436Z,45.42
2022-12-16T10:29:38.911Z,47.95
2022-12-16T10:32:52.048Z,47.95
2022-12-16T10:35:42.609Z,47.75
2022-12-16T10:38:57.757Z,47.55
2022-12-16T10:41:47.765Z,44.10
2022-12-16T10:44:59.672Z,43.17
2022-12-16T10:47:45.252Z,35.08
2022-12-16T10:50:32.880Z,39.65
2022-12-16T10:53:22.717Z,40.53
2022-12-16T10:56:08.062Z,43.20
2022-12-16T10:59:06.326Z,35.90
2022-12-16T11:01:51.890Z,40.35
2022-12-16T11:04:52.558Z,41.17
2022-12-16T11:08:05.005Z,42.22
2022-12-16T11:10:58.919Z,41.55
2022-12-16T11:13:51.865Z,41.58
2022-12-16T11:16:48.173Z,43.30
2022-12-16T11:19:43.529Z,41.60
2022-12-16T11:22:38.203Z,48.10
2022-12-16T11:25:32.824Z,49.08
2022-12-16T11:28:32.675Z,45.95
2022-12-16T11:31:33.780Z,44.45
2022-12-16T11:34:21.523Z,44.40
2022-12-16T11:37:11.106Z,46.35
2022-12-16T11:39:58.721Z,49.45
2022-12-16T11:42:51.432Z,46.40
2022-12-16T11:45:39.620Z,44.38
2022-12-16T11:48:36.172Z,49.60
2022-12-16T11:51:23.190Z,48.58
2022-12-16T11:54:35.721Z,48.88
2022-12-16T11:57:24.495Z,46.22
2022-12-16T12:00:17.710Z,47.75
2022-12-16T12:03:17.344Z,43.28
2022-12-16T12:06:25.363Z,45.53
2022-12-16T12:09:30.194Z,49.13
2022-12-16T12:12:30.990Z,49.05
2022-12-16T12:15:27.819Z,45.22
2022-12-16T12:18:35.953Z,43.05
2022-12-16T12:21:32.103Z,48.35
2022-12-16T12:24:20.496Z,44.33
2022-12-16T12:27:17.916Z,46.85
2022-12-16T12:30:16.717Z,47.28
2022-12-16T12:33:08.498Z,43.97
2022-12-16T12:36:39.851Z,48.80
2022-12-16T12:39:25.476Z,45.95
2022-12-16T12:42:45.670Z,44.45
2022-12-16T12:45:54.666Z,48.08
2022-12-16T12:49:06.017Z,47.35
2022-12-16T12:52:14.568Z,49.42
2022-12-16T12:55:22.245Z,49.70
2022-12-16T12:58:09.405Z,45.08
2022-12-16T13:01:04.177Z,45.90
2022-12-16T13:04:20.002Z,49.40
2022-12-16T13:07:06.109Z,51.47
2022-12-16T13:09:56.753Z,53.20
2022-12-16T13:12:50.388Z,52.17
2022-12-16T13:15:57.381Z,52.88
2022-12-16T13:18:48.097Z,50.42
2022-12-16T13:21:56.395Z,51.97
2022-12-16T13:24:45.464Z,50.60
2022-12-16T13:27:35.700Z,51.22
2022-12-16T13:30:39.131Z,49.85
2022-12-16T13:33:51.087Z,51.60
2022-12-16T13:36:37.463Z,49.83
2022-12-16T13:39:40.485Z,51.95
2022-12-16T13:42:51.732Z,53.65
2022-12-16T13:46:02.166Z,52.40
2022-12-16T13:49:05.465Z,52.80
2022-12-16T13:51:56.740Z,49.80
2022-12-16T13:54:47.872Z,51.50
2022-12-16T13:57:36.718Z,51.85
2022-12-16T14:00:24.686Z,47.88
2022-12-16T14:03:11.454Z,48.70
2022-12-16T14:06:01.636Z,54.35
2022-12-16T14:08:55.113Z,49.25
2022-12-16T14:12:06.528Z,45.08
2022-12-16T14:15:03.184Z,46.13
2022-12-16T14:18:18.042Z,51.35
2022-12-16T14:21:13.247Z,46.60
2022-12-16T14:24:10.598Z,47.28
2022-12-16T14:26:57.117Z,47.47
2022-12-16T14:29:51.732Z,46.00
2022-12-16T14:32:43.253Z,46.17
2022-12-16T14:35:35.904Z,47.40
2022-12-16T14:38:44.819Z,49.50
2022-12-16T14:41:41.416Z,47.88
2022-12-16T14:44:41.453Z,47.67
2022-12-16T14:47:39.073Z,45.10
2022-12-16T14:50:44.842Z,51.55
2022-12-16T14:53:34.867Z,51.67
2022-12-16T14:56:41.366Z,49.78
2022-12-16T14:59:36.062Z,50.27
2022-12-16T15:02:48.456Z,48.22
2022-12-16T15:05:34.392Z,53.22
2022-12-16T15:08:19.967Z,48.22
2022-12-16T15:11:05.834Z,53.22
2022-12-16T15:13:54.337Z,44.35
2022-12-16T15:16:51.686Z,43.38
2022-12-16T15:19:41.313Z,40.60
2022-12-16T15:22:34.864Z,40.63
2022-12-16T15:25:21.627Z,42.03
2022-12-16T15:28:15.284Z,43.35
2022-12-16T15:31:05.413Z,40.53
2022-12-16T15:33:56.439Z,41.80
2022-12-16T15:36:51.368Z,40.72
2022-12-16T15:39:53.542Z,40.15
2022-12-16T15:42:47.926Z,38.60
2022-12-16T15:45:36.316Z,37.65
2022-12-16T15:48:32.226Z,34.53
2022-12-16T15:51:17.745Z,35.30
2022-12-16T15:54:03.277Z,34.03
2022-12-16T15:57:03.803Z,39.78
2022-12-16T15:59:52.372Z,34.03
2022-12-16T16:02:46.904Z,32.58
2022-12-16T16:05:34.081Z,30.90
2022-12-16T16:08:19.726Z,29.27
2022-12-16T16:11:05.478Z,36.00
2022-12-16T16:13:51.348Z,34.78
2022-12-16T16:16:37.417Z,32.35
2022-12-16T16:19:28.321Z,31.70
2022-12-16T16:22:13.986Z,29.52
2022-12-16T16:25:02.000Z,31.42
2022-12-16T16:27:47.724Z,33.72
2022-12-16T16:30:33.009Z,27.85
2022-12-16T16:33:18.481Z,32.08
2022-12-16T16:36:04.147Z,31.25
2022-12-16T16:38:49.473Z,38.13
2022-12-16T16:41:35.833Z,39.08
2022-12-16T16:47:23.625Z,30.75
2022-12-16T16:50:09.253Z,31.08
2022-12-16T16:52:54.912Z,29.75
2022-12-16T16:55:42.781Z,27.88
2022-12-16T16:58:46.914Z,30.52
2022-12-16T17:01:35.256Z,28.58
2022-12-16T17:04:21.642Z,31.27
2022-12-16T17:07:07.607Z,30.67
2022-12-16T17:09:52.978Z,32.53
2022-12-16T17:12:40.437Z,29.02
2022-12-16T17:15:32.252Z,30.48
2022-12-16T17:18:18.033Z,30.98
2022-12-16T17:21:03.554Z,32.20
2022-12-16T17:23:52.175Z,30.10
2022-12-16T17:26:37.854Z,34.88
2022-12-16T17:29:23.691Z,27.73
2022-12-16T17:32:11.283Z,30.00
2022-12-16T17:34:56.684Z,28.52
2022-12-16T17:37:42.287Z,30.00
2022-12-16T17:40:28.572Z,30.83
2022-12-16T17:45:59.963Z,30.77
2022-12-16T17:48:45.907Z,28.58
2022-12-16T17:51:31.562Z,32.13
2022-12-16T17:54:23.815Z,29.27
2022-12-16T17:57:10.623Z,30.85
2022-12-16T18:00:10.309Z,30.65
2022-12-16T18:02:58.877Z,32.20
2022-12-16T18:05:45.139Z,29.38
2022-12-16T18:08:30.986Z,32.53
2022-12-16T18:11:17.342Z,32.97
2022-12-16T18:16:48.900Z,34.38
2022-12-16T18:19:35.605Z,33.63
2022-12-16T18:22:22.079Z,34.42
2022-12-16T18:25:07.722Z,36.35
2022-12-16T18:27:55.203Z,35.53
2022-12-16T18:30:40.868Z,34.72
2022-12-16T18:33:27.004Z,35.53
2022-12-16T18:38:58.543Z,34.95
2022-12-16T18:41:44.154Z,37.47
2022-12-16T18:44:31.958Z,36.78
2022-12-16T18:47:19.678Z,35.72
2022-12-16T18:50:05.109Z,38.53
2022-12-16T18:52:50.621Z,38.87
2022-12-16T18:55:36.003Z,35.63
2022-12-16T19:01:30.882Z,37.47
2022-12-16T19:04:17.676Z,37.92
2022-12-16T19:09:49.214Z,40.70
2022-12-16T19:12:35.016Z,35.40
2022-12-16T19:15:20.386Z,34.63
2022-12-16T19:18:06.099Z,37.87
2022-12-16T19:20:51.490Z,34.67
2022-12-16T19:23:37.916Z,38.10
2022-12-16T19:26:23.974Z,36.05
2022-12-16T19:29:09.610Z,40.30
2022-12-16T19:31:56.046Z,39.70
2022-12-16T19:34:42.106Z,40.72
2022-12-16T19:37:27.574Z,39.20
2022-12-16T19:40:13.059Z,39.43
2022-12-16T19:42:58.503Z,35.90
2022-12-16T19:45:44.111Z,37.25
2022-12-16T19:48:29.837Z,36.33
2022-12-16T19:51:16.618Z,38.38
2022-12-16T19:54:02.943Z,40.10
2022-12-16T19:56:49.576Z,38.50
2022-12-16T19:59:34.965Z,37.70
2022-12-16T20:02:20.865Z,39.30
2022-12-16T20:05:06.596Z,39.35
2022-12-16T20:07:51.851Z,37.72
2022-12-16T20:10:37.521Z,39.10
2022-12-16T20:13:30.181Z,37.38
2022-12-16T20:16:27.387Z,36.95
2022-12-16T20:19:13.922Z,37.55
2022-12-16T20:22:06.791Z,38.00
2022-12-16T20:24:52.924Z,39.30
2022-12-16T20:27:42.271Z,37.38
2022-12-16T20:30:28.844Z,37.47
2022-12-16T20:33:14.555Z,34.75
2022-12-16T20:36:00.028Z,35.55
2022-12-16T20:38:45.562Z,37.15
2022-12-16T20:41:31.112Z,36.30
2022-12-16T20:44:17.010Z,32.78
2022-12-16T20:47:02.780Z,38.50
2022-12-16T20:49:48.328Z,36.50
2022-12-16T20:52:33.872Z,34.33
2022-12-16T20:55:19.164Z,34.90
2022-12-16T20:58:04.598Z,34.78
2022-12-16T21:00:50.193Z,36.60
2022-12-16T21:03:35.928Z,33.90
2022-12-16T21:06:23.317Z,36.42
2022-12-16T21:09:08.877Z,34.65
2022-12-16T21:11:56.392Z,36.55
2022-12-16T21:14:42.095Z,38.78
2022-12-16T21:17:27.687Z,36.45
2022-12-16T21:20:13.194Z,36.33
2022-12-16T21:22:58.581Z,37.97
2022-12-16T21:25:44.179Z,36.03
2022-12-16T21:28:31.237Z,36.53
2022-12-16T21:31:20.326Z,35.60
2022-12-16T21:34:05.754Z,35.05
2022-12-16T21:36:51.337Z,38.20
2022-12-16T21:39:37.088Z,33.28
2022-12-16T21:42:22.877Z,34.25
2022-12-16T21:45:08.373Z,35.92
2022-12-16T21:47:53.891Z,37.22
2022-12-16T21:50:41.841Z,37.33
2022-12-16T21:53:27.772Z,35.17
2022-12-16T21:56:15.045Z,34.85
2022-12-16T21:59:03.725Z,35.65
2022-12-16T22:01:49.239Z,38.28
2022-12-16T22:04:34.995Z,36.80
2022-12-16T22:07:20.473Z,34.50
2022-12-16T22:10:05.922Z,35.67
2022-12-16T22:12:56.101Z,34.25
2022-12-16T22:15:41.962Z,36.58
2022-12-16T22:18:27.421Z,38.97
2022-12-16T22:21:22.675Z,38.23
2022-12-16T22:24:08.971Z,37.03
2022-12-16T22:26:54.777Z,40.17
2022-12-16T22:29:42.234Z,41.83
2022-12-16T22:32:35.178Z,38.13
2022-12-16T22:35:20.637Z,38.90
2022-12-16T22:38:06.000Z,38.20
2022-12-16T22:40:51.347Z,34.57
2022-12-16T22:43:37.737Z,37.00
2022-12-16T22:46:23.614Z,32.50
2022-12-16T22:49:09.225Z,39.67
2022-12-16T22:51:55.119Z,40.05
2022-12-16T22:54:42.555Z,31.80
2022-12-16T22:57:27.990Z,35.72
2022-12-16T23:00:13.828Z,36.00
2022-12-16T23:02:59.468Z,40.80
2022-12-16T23:05:45.379Z,38.08
2022-12-16T23:08:30.727Z,36.55
2022-12-16T23:11:17.453Z,37.23
2022-12-16T23:14:03.712Z,36.67
2022-12-16T23:19:34.956Z,38.28
2022-12-16T23:22:20.475Z,38.75
2022-12-16T23:25:05.772Z,39.42
2022-12-16T23:27:51.154Z,40.13
2022-12-16T23:30:37.678Z,36.10
2022-12-16T23:33:23.472Z,55.95
2022-12-16T23:36:09.380Z,41.85
2022-12-16T23:41:42.100Z,38.60
2022-12-16T23:44:27.889Z,39.88
2022-12-16T23:47:13.548Z,37.83
2022-12-16T23:49:59.497Z,37.33
2022-12-16T23:52:45.029Z,36.92
2022-12-16T23:55:30.469Z,38.22
2022-12-16T23:58:20.054Z,37.72
